createdAt,value
2023-05-01T00:02:14.875Z,20.61
2023-05-01T00:04:45.325Z,20.62
2023-05-01T00:07:15.274Z,20.64
2023-05-01T00:09:45.039Z,20.73
2023-05-01T00:12:14.700Z,20.68
2023-05-01T00:14:44.413Z,20.68
2023-05-01T00:17:14.409Z,20.66
2023-05-01T00:19:44.111Z,20.75
2023-05-01T00:22:16.780Z,20.84
2023-05-01T00:24:47.096Z,20.78
2023-05-01T00:27:16.860Z,20.90
2023-05-01T00:29:49.097Z,20.95
2023-05-01T00:32:19.681Z,20.94
2023-05-01T00:34:50.016Z,20.90
2023-05-01T00:37:19.872Z,20.90
2023-05-01T00:39:49.512Z,20.97
2023-05-01T00:42:19.121Z,20.97
2023-05-01T00:44:48.833Z,21.00
2023-05-01T00:47:18.464Z,20.99
2023-05-01T00:49:48.119Z,21.02
2023-05-01T00:52:17.772Z,21.05
2023-05-01T00:54:53.440Z,21.13
2023-05-01T00:57:23.556Z,21.14
2023-05-01T00:59:53.400Z,21.12
2023-05-01T01:02:23.310Z,21.18
2023-05-01T01:04:53.165Z,21.26
2023-05-01T01:07:31.871Z,21.22
2023-05-01T01:10:13.533Z,21.21
2023-05-01T01:13:05.962Z,21.24
2023-05-01T01:15:47.788Z,21.31
2023-05-01T01:19:06.446Z,21.25
2023-05-01T01:21:41.470Z,21.39
2023-05-01T01:24:32.415Z,21.35
2023-05-01T01:27:32.377Z,21.27
2023-05-01T01:30:13.800Z,21.32
2023-05-01T01:32:52.392Z,21.36
2023-05-01T01:35:25.235Z,21.30
2023-05-01T01:38:14.650Z,21.27
2023-05-01T01:41:02.320Z,21.36
2023-05-01T01:43:33.213Z,21.39
2023-05-01T01:46:04.432Z,21.47
2023-05-01T01:48:35.761Z,21.52
2023-05-01T01:51:17.100Z,21.51
2023-05-01T01:53:51.287Z,21.55
2023-05-01T01:56:21.006Z,21.61
2023-05-01T01:58:50.749Z,21.65
2023-05-01T02:01:21.203Z,21.72
2023-05-01T02:03:50.977Z,21.78
2023-05-01T02:06:20.758Z,21.81
2023-05-01T02:08:50.564Z,21.79
2023-05-01T02:11:21.724Z,21.88
2023-05-01T02:13:52.321Z,21.92
2023-05-01T02:16:22.525Z,21.97
2023-05-01T02:18:52.246Z,21.92
2023-05-01T02:21:24.502Z,21.88
2023-05-01T02:23:54.545Z,21.93
2023-05-01T02:26:26.995Z,21.88
2023-05-01T02:28:56.632Z,21.84
2023-05-01T02:31:29.532Z,21.87
2023-05-01T02:33:59.142Z,21.93
2023-05-01T02:36:29.471Z,21.83
2023-05-01T02:38:59.501Z,21.74
2023-05-01T02:41:31.977Z,21.73
2023-05-01T02:44:05.957Z,21.66
2023-05-01T02:46:38.450Z,21.70
2023-05-01T02:49:08.582Z,21.71
2023-05-01T02:51:38.447Z,21.70
2023-05-01T02:54:11.155Z,21.77
2023-05-01T02:56:40.774Z,21.77
2023-05-01T02:59:10.514Z,21.83
2023-05-01T03:01:41.429Z,21.87
2023-05-01T03:04:11.266Z,21.88
2023-05-01T03:06:46.001Z,21.88
2023-05-01T03:09:15.633Z,21.82
2023-05-01T03:11:48.237Z,21.89
2023-05-01T03:14:18.081Z,21.86
2023-05-01T03:16:47.794Z,21.99
2023-05-01T03:19:17.516Z,22.00
2023-05-01T03:21:47.368Z,22.10
2023-05-01T03:24:17.101Z,22.13
2023-05-01T03:26:46.797Z,22.09
2023-05-01T03:29:16.575Z,22.06
2023-05-01T03:31:46.315Z,22.07
2023-05-01T03:34:19.011Z,21.98
2023-05-01T03:36:48.671Z,22.10
2023-05-01T03:39:18.700Z,22.12
2023-05-01T03:41:48.312Z,22.06
2023-05-01T03:44:17.967Z,22.08
2023-05-01T03:46:47.705Z,22.10
2023-05-01T03:49:17.459Z,22.14
2023-05-01T03:51:47.559Z,22.09
2023-05-01T03:54:17.517Z,22.05
2023-05-01T03:56:47.120Z,22.06
2023-05-01T03:59:16.795Z,22.09
2023-05-01T04:01:46.588Z,22.16
2023-05-01T04:04:16.377Z,22.17
2023-05-01T04:06:46.283Z,22.12
2023-05-01T04:09:16.092Z,22.05
2023-05-01T04:11:45.798Z,22.19
2023-05-01T04:14:15.470Z,22.27
2023-05-01T04:16:45.191Z,22.22
2023-05-01T04:19:14.988Z,22.22
2023-05-01T04:21:44.590Z,22.26
2023-05-01T04:24:14.712Z,22.30
2023-05-01T04:26:44.750Z,22.33
2023-05-01T04:29:17.405Z,22.32
2023-05-01T04:31:47.204Z,22.29
2023-05-01T04:34:17.579Z,22.32
2023-05-01T04:36:47.746Z,22.34
2023-05-01T04:39:17.432Z,22.35
2023-05-01T04:41:47.141Z,22.34
2023-05-01T04:44:18.040Z,22.29
2023-05-01T04:46:47.791Z,22.38
2023-05-01T04:49:17.424Z,22.37
2023-05-01T04:51:47.437Z,22.32
2023-05-01T04:54:17.085Z,22.35
2023-05-01T04:56:46.959Z,22.39
2023-05-01T04:59:16.624Z,22.39
2023-05-01T05:01:46.308Z,22.39
2023-05-01T05:04:16.054Z,22.34
2023-05-01T05:06:45.846Z,22.41
2023-05-01T05:09:17.487Z,22.41
2023-05-01T05:11:49.151Z,22.34
2023-05-01T05:14:18.835Z,22.39
2023-05-01T05:16:48.674Z,22.29
2023-05-01T05:19:19.008Z,22.28
2023-05-01T05:21:48.649Z,22.28
2023-05-01T05:24:18.296Z,22.32
2023-05-01T05:26:47.942Z,22.31
2023-05-01T05:29:17.559Z,22.20
2023-05-01T05:31:47.337Z,22.20
2023-05-01T05:34:17.009Z,22.26
2023-05-01T05:36:46.691Z,22.15
2023-05-01T05:39:16.400Z,22.32
2023-05-01T05:41:48.242Z,22.21
2023-05-01T05:44:17.887Z,22.13
2023-05-01T05:46:47.675Z,22.12
2023-05-01T05:49:17.271Z,22.15
2023-05-01T05:51:46.982Z,22.15
2023-05-01T05:54:16.586Z,22.31
2023-05-01T05:56:46.373Z,22.28
2023-05-01T05:59:17.408Z,22.20
2023-05-01T06:01:47.386Z,22.15
2023-05-01T06:04:17.148Z,22.19
2023-05-01T06:06:47.010Z,22.24
2023-05-01T06:09:16.860Z,22.17
2023-05-01T06:11:47.075Z,22.13
2023-05-01T06:14:18.203Z,22.19
2023-05-01T06:16:47.935Z,22.05
2023-05-01T06:19:17.642Z,22.20
2023-05-01T06:21:48.338Z,22.20
2023-05-01T06:24:17.980Z,22.18
2023-05-01T06:26:47.689Z,22.29
2023-05-01T06:29:18.118Z,22.35
2023-05-01T06:31:48.106Z,22.23
2023-05-01T06:34:17.950Z,22.28
2023-05-01T06:36:47.951Z,22.27
2023-05-01T06:39:17.759Z,22.28
2023-05-01T06:41:50.603Z,22.25
2023-05-01T06:44:20.304Z,22.32
2023-05-01T06:46:50.027Z,22.36
2023-05-01T06:49:19.730Z,22.30
2023-05-01T06:51:49.385Z,22.28
2023-05-01T06:54:19.062Z,22.33
2023-05-01T06:56:48.723Z,22.34
2023-05-01T06:59:18.488Z,22.44
2023-05-01T07:01:48.255Z,22.56
2023-05-01T07:04:18.025Z,22.56
2023-05-01T07:06:48.261Z,22.56
2023-05-01T07:09:18.037Z,22.48
2023-05-01T07:11:48.096Z,22.50
2023-05-01T07:14:17.763Z,22.42
2023-05-01T07:16:47.881Z,22.35
2023-05-01T07:19:17.620Z,22.31
2023-05-01T07:21:47.374Z,22.31
2023-05-01T07:24:16.990Z,22.33
2023-05-01T07:26:46.609Z,22.32
2023-05-01T07:29:19.224Z,22.23
2023-05-01T07:31:52.913Z,22.17
2023-05-01T07:34:22.593Z,22.25
2023-05-01T07:36:52.260Z,22.18
2023-05-01T07:39:24.045Z,22.19
2023-05-01T07:41:54.330Z,22.12
2023-05-01T07:44:23.939Z,22.15
2023-05-01T07:46:53.636Z,22.10
2023-05-01T07:49:23.411Z,22.13
2023-05-01T07:51:53.624Z,22.15
2023-05-01T07:54:24.413Z,22.14
2023-05-01T07:56:54.045Z,22.04
2023-05-01T07:59:29.981Z,22.09
2023-05-01T08:01:59.772Z,22.21
2023-05-01T08:04:30.962Z,22.14
2023-05-01T08:07:00.599Z,22.04
2023-05-01T08:09:30.586Z,22.13
2023-05-01T08:12:00.269Z,22.12
2023-05-01T08:14:29.959Z,22.11
2023-05-01T08:16:59.645Z,22.13
2023-05-01T08:19:29.607Z,22.13
2023-05-01T08:21:59.247Z,22.09
2023-05-01T08:24:29.480Z,22.04
2023-05-01T08:27:02.545Z,21.98
2023-05-01T08:29:32.274Z,21.99
2023-05-01T08:32:02.003Z,22.00
2023-05-01T08:34:31.883Z,21.97
2023-05-01T08:37:02.338Z,21.90
2023-05-01T08:39:32.195Z,21.99
2023-05-01T08:42:02.054Z,21.91
2023-05-01T08:44:31.696Z,22.04
2023-05-01T08:47:16.720Z,21.85
2023-05-01T08:49:47.034Z,22.02
2023-05-01T08:52:17.355Z,22.19
2023-05-01T08:54:48.709Z,22.14
2023-05-01T08:57:18.372Z,21.95
2023-05-01T08:59:48.094Z,21.97
2023-05-01T09:02:17.793Z,21.96
2023-05-01T09:04:47.985Z,22.12
2023-05-01T09:07:22.015Z,22.19
2023-05-01T09:09:51.852Z,22.19
2023-05-01T09:12:30.494Z,22.18
2023-05-01T09:15:00.175Z,22.20
2023-05-01T09:17:30.646Z,22.22
2023-05-01T09:20:00.335Z,22.16
2023-05-01T09:22:33.444Z,22.14
2023-05-01T09:25:05.967Z,22.11
2023-05-01T09:27:39.383Z,22.15
2023-05-01T09:30:10.967Z,22.16
2023-05-01T09:32:42.589Z,22.14
2023-05-01T09:35:14.130Z,22.04
2023-05-01T09:37:43.838Z,22.07
2023-05-01T09:40:15.382Z,22.14
2023-05-01T09:42:54.648Z,22.08
2023-05-01T09:45:25.126Z,22.10
2023-05-01T09:47:55.422Z,22.06
2023-05-01T09:50:36.160Z,22.01
2023-05-01T09:53:08.023Z,22.07
2023-05-01T09:55:38.017Z,21.97
2023-05-01T09:58:08.075Z,22.01
2023-05-01T10:00:51.415Z,22.01
2023-05-01T10:03:21.179Z,22.01
2023-05-01T10:05:50.883Z,22.07
2023-05-01T10:08:20.481Z,22.02
2023-05-01T10:11:03.221Z,21.86
2023-05-01T10:13:33.610Z,21.94
2023-05-01T10:16:09.082Z,21.97
2023-05-01T10:18:41.646Z,21.90
2023-05-01T10:21:12.306Z,21.91
2023-05-01T10:23:45.200Z,21.90
2023-05-01T10:26:18.200Z,21.94
2023-05-01T10:28:49.390Z,21.86
2023-05-01T10:31:19.132Z,21.85
2023-05-01T10:33:48.830Z,21.91
2023-05-01T10:36:27.352Z,21.82
2023-05-01T10:38:57.067Z,21.85
2023-05-01T10:42:00.314Z,21.83
2023-05-01T10:44:30.064Z,21.81
2023-05-01T10:46:59.865Z,21.82
2023-05-01T10:50:01.870Z,21.80
2023-05-01T10:52:31.583Z,21.82
2023-05-01T10:55:36.818Z,21.70
2023-05-01T10:58:06.459Z,21.79
2023-05-01T11:00:36.197Z,21.81
2023-05-01T11:03:24.478Z,21.83
2023-05-01T11:06:05.334Z,21.84
2023-05-01T11:08:41.635Z,21.83
2023-05-01T11:11:24.272Z,21.82
2023-05-01T11:14:12.616Z,21.82
2023-05-01T11:16:48.583Z,21.79
2023-05-01T11:19:25.115Z,21.78
2023-05-01T11:21:55.808Z,21.73
2023-05-01T11:24:34.548Z,21.67
2023-05-01T11:27:04.446Z,21.67
2023-05-01T11:29:35.020Z,21.68
2023-05-01T11:32:07.324Z,21.70
2023-05-01T11:34:40.171Z,21.60
2023-05-01T11:37:10.690Z,21.60
2023-05-01T11:42:25.894Z,21.60
2023-05-01T11:45:14.599Z,21.53
2023-05-01T11:47:44.468Z,21.57
2023-05-01T11:50:14.364Z,21.49
2023-05-01T11:52:56.708Z,21.48
2023-05-01T11:55:35.881Z,21.49
2023-05-01T11:58:06.889Z,21.47
2023-05-01T12:00:40.730Z,21.48
2023-05-01T12:03:12.648Z,21.44
2023-05-01T12:05:47.964Z,21.50
2023-05-01T12:08:25.292Z,21.42
2023-05-01T12:11:02.638Z,21.43
2023-05-01T12:13:32.452Z,21.50
2023-05-01T12:16:02.399Z,21.47
2023-05-01T12:18:32.105Z,21.53
2023-05-01T12:21:02.840Z,21.46
2023-05-01T12:23:41.939Z,21.40
2023-05-01T12:26:21.666Z,21.44
2023-05-01T12:29:09.351Z,21.45
2023-05-01T12:31:39.841Z,21.42
2023-05-01T12:34:09.796Z,21.41
2023-05-01T12:36:39.603Z,21.47
2023-05-01T12:39:15.458Z,21.35
2023-05-01T12:41:46.581Z,21.38
2023-05-01T12:44:27.099Z,21.40
2023-05-01T12:47:08.148Z,21.37
2023-05-01T12:52:40.613Z,21.18
2023-05-01T12:55:11.532Z,21.31
2023-05-01T12:57:54.636Z,21.32
2023-05-01T13:00:24.496Z,21.40
2023-05-01T13:02:54.222Z,21.36
2023-05-01T13:05:23.907Z,21.34
2023-05-01T13:07:56.197Z,21.35
2023-05-01T13:10:33.121Z,21.30
2023-05-01T13:13:02.875Z,21.27
2023-05-01T13:15:32.738Z,21.22
2023-05-01T13:18:10.028Z,21.28
2023-05-01T13:20:40.926Z,21.21
2023-05-01T13:23:14.615Z,21.28
2023-05-01T13:25:46.841Z,21.17
2023-05-01T13:28:22.431Z,21.24
2023-05-01T13:30:52.051Z,21.01
2023-05-01T13:33:21.689Z,21.20
2023-05-01T13:35:51.349Z,21.27
2023-05-01T13:38:24.948Z,21.26
2023-05-01T13:40:54.830Z,21.22
2023-05-01T13:43:28.032Z,21.22
2023-05-01T13:46:01.860Z,21.21
2023-05-01T13:48:33.211Z,21.28
2023-05-01T13:51:02.940Z,21.31
2023-05-01T13:53:32.721Z,21.24
2023-05-01T13:56:02.992Z,21.22
2023-05-01T13:58:36.400Z,21.25
2023-05-01T14:01:06.315Z,21.21
2023-05-01T14:03:43.869Z,21.20
2023-05-01T14:06:20.812Z,21.22
2023-05-01T14:08:50.893Z,21.24
2023-05-01T14:11:21.627Z,21.24
2023-05-01T14:13:53.102Z,21.21
2023-05-01T14:16:29.905Z,21.23
2023-05-01T14:18:59.761Z,21.24
2023-05-01T14:21:29.704Z,21.23
2023-05-01T14:23:59.753Z,21.20
2023-05-01T14:26:29.422Z,21.22
2023-05-01T14:28:59.082Z,21.23
2023-05-01T14:31:32.661Z,21.20
2023-05-01T14:34:07.912Z,21.19
2023-05-01T14:36:37.562Z,21.21
2023-05-01T14:39:07.340Z,21.15
2023-05-01T14:41:40.424Z,21.10
2023-05-01T14:44:13.856Z,21.12
2023-05-01T14:46:51.272Z,21.18
2023-05-01T14:49:32.946Z,21.10
2023-05-01T14:52:02.690Z,21.08
2023-05-01T14:54:32.638Z,21.11
2023-05-01T14:57:05.301Z,21.21
2023-05-01T14:59:35.027Z,21.24
2023-05-01T15:02:04.781Z,21.19
2023-05-01T15:04:34.548Z,21.18
2023-05-01T15:07:04.408Z,21.12
2023-05-01T15:09:34.104Z,21.13
2023-05-01T15:12:06.734Z,21.09
2023-05-01T15:14:37.146Z,21.13
2023-05-01T15:17:07.499Z,21.13
2023-05-01T15:19:37.152Z,21.14
2023-05-01T15:22:06.978Z,21.12
2023-05-01T15:24:36.652Z,21.08
2023-05-01T15:27:06.486Z,21.12
2023-05-01T15:29:36.684Z,21.08
2023-05-01T15:32:12.554Z,21.08
2023-05-01T15:34:44.255Z,21.08
2023-05-01T15:37:14.538Z,21.04
2023-05-01T15:39:44.763Z,21.03
2023-05-01T15:42:14.428Z,21.11
2023-05-01T15:44:44.098Z,21.06
2023-05-01T15:47:13.846Z,21.06
2023-05-01T15:49:43.681Z,21.03
2023-05-01T15:52:13.665Z,20.99
2023-05-01T15:54:43.633Z,21.07
2023-05-01T15:57:14.080Z,21.01
2023-05-01T15:59:44.444Z,21.03
2023-05-01T16:02:17.863Z,21.01
2023-05-01T16:04:50.517Z,21.01
2023-05-01T16:07:20.158Z,21.02
2023-05-01T16:09:52.878Z,21.05
2023-05-01T16:12:22.542Z,21.06
2023-05-01T16:14:53.252Z,21.02
2023-05-01T16:17:23.096Z,20.99
2023-05-01T16:19:54.200Z,20.95
2023-05-01T16:22:24.014Z,20.96
2023-05-01T16:24:53.633Z,20.96
2023-05-01T16:27:23.262Z,20.99
2023-05-01T16:29:52.932Z,21.04
2023-05-01T16:32:25.553Z,21.01
2023-05-01T16:34:55.196Z,20.99
2023-05-01T16:37:24.934Z,20.91
2023-05-01T16:39:54.663Z,21.01
2023-05-01T16:42:24.446Z,20.98
2023-05-01T16:44:54.162Z,20.94
2023-05-01T16:47:23.972Z,20.99
2023-05-01T16:49:55.213Z,20.97
2023-05-01T16:52:24.827Z,21.00
2023-05-01T16:54:55.923Z,20.97
2023-05-01T16:57:26.111Z,20.93
2023-05-01T16:59:56.574Z,20.98
2023-05-01T17:02:26.520Z,20.99
2023-05-01T17:04:56.186Z,20.93
2023-05-01T17:07:25.957Z,20.89
2023-05-01T17:09:59.451Z,20.86
2023-05-01T17:12:29.391Z,20.87
2023-05-01T17:14:59.135Z,20.86
2023-05-01T17:17:28.901Z,20.89
2023-05-01T17:19:58.832Z,20.87
2023-05-01T17:22:29.225Z,20.88
2023-05-01T17:24:59.297Z,20.88
2023-05-01T17:27:28.946Z,20.85
2023-05-01T17:29:58.953Z,20.86
2023-05-01T17:32:36.519Z,20.88
2023-05-01T17:35:08.006Z,20.88
2023-05-01T17:37:43.426Z,20.94
2023-05-01T17:40:13.394Z,20.90
2023-05-01T17:42:43.444Z,20.89
2023-05-01T17:45:13.614Z,20.90
2023-05-01T17:47:47.765Z,20.81
2023-05-01T17:50:18.182Z,20.84
2023-05-01T17:52:47.886Z,20.89
2023-05-01T17:55:18.391Z,20.87
2023-05-01T17:57:52.289Z,20.86
2023-05-01T18:00:25.631Z,20.84
2023-05-01T18:02:55.470Z,20.84
2023-05-01T18:05:25.196Z,20.86
2023-05-01T18:07:55.544Z,20.89
2023-05-01T18:10:26.008Z,20.86
2023-05-01T18:12:56.230Z,20.70
2023-05-01T18:15:29.420Z,20.77
2023-05-01T18:17:59.185Z,20.84
2023-05-01T18:20:29.445Z,20.83
2023-05-01T18:22:59.124Z,20.75
2023-05-01T18:25:28.709Z,20.84
2023-05-01T18:27:59.048Z,20.84
2023-05-01T18:30:28.747Z,20.78
2023-05-01T18:32:58.452Z,20.81
2023-05-01T18:35:28.100Z,20.77
2023-05-01T18:37:57.806Z,20.79
2023-05-01T18:40:30.501Z,20.76
2023-05-01T18:43:00.502Z,20.80
2023-05-01T18:45:30.623Z,20.80
2023-05-01T18:48:03.343Z,20.78
2023-05-01T18:50:33.437Z,20.81
2023-05-01T18:53:03.236Z,20.81
2023-05-01T18:55:33.299Z,20.88
2023-05-01T18:58:03.616Z,20.76
2023-05-01T19:00:33.313Z,20.80
2023-05-01T19:03:03.035Z,20.83
2023-05-01T19:05:33.011Z,20.82
2023-05-01T19:08:06.680Z,20.75
2023-05-01T19:10:37.301Z,20.80
2023-05-01T19:13:09.808Z,20.77
2023-05-01T19:15:39.468Z,20.78
2023-05-01T19:18:09.616Z,20.78
2023-05-01T19:20:40.917Z,20.71
2023-05-01T19:23:11.208Z,20.68
2023-05-01T19:25:41.007Z,20.71
2023-05-01T19:28:10.703Z,20.70
2023-05-01T19:30:40.313Z,20.74
2023-05-01T19:33:09.974Z,20.71
2023-05-01T19:35:40.139Z,20.70
2023-05-01T19:38:11.040Z,20.67
2023-05-01T19:40:41.271Z,20.64
2023-05-01T19:43:11.192Z,20.73
2023-05-01T19:45:41.205Z,20.69
2023-05-01T19:48:10.872Z,20.71
2023-05-01T19:50:43.760Z,20.74
2023-05-01T19:53:13.418Z,20.70
2023-05-01T19:55:48.175Z,20.65
2023-05-01T19:58:18.134Z,20.67
2023-05-01T20:00:47.835Z,20.72
2023-05-01T20:03:18.113Z,20.73
2023-05-01T20:05:47.892Z,20.73
2023-05-01T20:08:17.475Z,20.61
2023-05-01T20:10:47.699Z,20.63
2023-05-01T20:13:17.478Z,20.63
2023-05-01T20:15:49.094Z,20.60
2023-05-01T20:18:19.387Z,20.59
2023-05-01T20:20:49.144Z,20.62
2023-05-01T20:23:21.055Z,20.60
2023-05-01T20:25:55.399Z,20.59
2023-05-01T20:28:25.115Z,20.59
2023-05-01T20:30:54.877Z,20.53
2023-05-01T20:33:24.768Z,20.58
2023-05-01T20:35:54.582Z,20.52
2023-05-01T20:38:24.859Z,20.55
2023-05-01T20:40:55.299Z,20.55
2023-05-01T20:43:28.552Z,20.60
2023-05-01T20:46:07.893Z,20.61
2023-05-01T20:48:37.567Z,20.57
2023-05-01T20:51:07.257Z,20.51
2023-05-01T20:53:36.920Z,20.52
2023-05-01T20:56:06.999Z,20.56
2023-05-01T20:58:37.480Z,20.59
2023-05-01T21:01:08.163Z,20.52
2023-05-01T21:03:37.917Z,20.55
2023-05-01T21:06:07.832Z,20.57
2023-05-01T21:08:37.502Z,20.52
2023-05-01T21:11:07.204Z,20.52
2023-05-01T21:13:36.911Z,20.48
2023-05-01T21:16:16.360Z,20.51
2023-05-01T21:18:46.128Z,20.55
2023-05-01T21:21:17.465Z,20.55
2023-05-01T21:23:50.484Z,20.46
2023-05-01T21:26:21.241Z,20.51
2023-05-01T21:28:50.863Z,20.48
2023-05-01T21:31:20.694Z,20.50
2023-05-01T21:33:51.429Z,20.47
2023-05-01T21:36:21.065Z,20.48
2023-05-01T21:38:50.745Z,20.52
2023-05-01T21:41:23.055Z,20.43
2023-05-01T21:43:52.776Z,20.48
2023-05-01T21:46:22.572Z,20.46
2023-05-01T21:48:56.638Z,20.50
2023-05-01T21:51:33.418Z,20.47
2023-05-01T21:54:05.933Z,20.46
2023-05-01T21:56:35.607Z,20.47
2023-05-01T21:59:06.120Z,20.46
2023-05-01T22:01:35.873Z,20.48
2023-05-01T22:04:06.082Z,20.43
2023-05-01T22:06:35.923Z,20.43
2023-05-01T22:09:05.798Z,20.36
2023-05-01T22:11:39.370Z,20.40
2023-05-01T22:14:09.369Z,20.46
2023-05-01T22:19:22.236Z,20.47
2023-05-01T22:21:55.069Z,20.53
2023-05-01T22:24:24.772Z,20.53
2023-05-01T22:26:57.485Z,20.53
2023-05-01T22:29:28.910Z,20.52
2023-05-01T22:31:58.734Z,20.55
2023-05-01T22:34:28.583Z,20.65
2023-05-01T22:36:58.862Z,20.72
2023-05-01T22:39:28.679Z,20.76
2023-05-01T22:41:59.730Z,20.80
2023-05-01T22:44:29.980Z,20.94
2023-05-01T22:47:02.764Z,21.00
2023-05-01T22:49:34.211Z,20.98
2023-05-01T22:52:04.786Z,21.08
2023-05-01T22:54:34.496Z,21.09
2023-05-01T22:57:05.050Z,21.09
2023-05-01T22:59:34.967Z,21.19
2023-05-01T23:02:07.793Z,21.21
2023-05-01T23:04:49.473Z,21.21
2023-05-01T23:07:19.646Z,21.19
2023-05-01T23:09:49.346Z,21.24
2023-05-01T23:12:27.266Z,21.25
2023-05-01T23:15:20.243Z,21.21
2023-05-01T23:17:49.992Z,21.32
2023-05-01T23:20:26.080Z,21.28
2023-05-01T23:23:00.635Z,21.37
2023-05-01T23:28:27.166Z,21.42
2023-05-01T23:34:53.183Z,21.48
2023-05-01T23:37:37.161Z,21.62
2023-05-01T23:40:08.278Z,21.67
2023-05-01T23:42:39.726Z,21.65
2023-05-01T23:45:14.593Z,21.68
2023-05-01T23:48:03.698Z,21.74
2023-05-01T23:53:41.716Z,21.76
2023-05-01T23:56:19.059Z,21.81
2023-05-01T23:58:48.752Z,21.85
